x

Halibut Bank (46146) Wave Buoy

6:00pm - Mon 16th Jan 2017 All times are PST. -8 hours from GMT.

  • Sig Wave height 1.3ft
  • Peak Period 3s
  • Wind
    18mph, 20mph gusts
  • Sea Temp 44°f
  • Air Temp 44°f
  • Sea Pressure 1014.2mb
  • Halibut Bank
  • Halibut Bank

More Historic Weather Station data

Upgrade to MSW Pro to gain access to the past 30 days of data for over 8000 Wavebouys and Weather Stations around the globe.

Join Pro

Comparision Forecast

View Surf forecast
   
Mon 01/16 6:00pm 1.3ft 3s 18 20 mph 1014.2mb 44f 44f
5:00pm 1.3ft 3s 13
mph
1015.2mb 44f 44f
4:00pm 1.6ft 3s 13 18 mph 1014.7mb 44f 43f
3:00pm 1.3ft 3s 18 20 mph 1014.8mb 44f 43f
2:00pm 1.6ft 3s 18 20 mph 1016mb 44f 42f
1:00pm 1.3ft 3s 18 20 mph 1017.4mb 44f 42f
12:00pm 1.6ft 3s 18 22 mph 1018.9mb 44f 42f
11:00am 1.6ft 3s 16 20 mph 1020.2mb 44f 41f
10:00am 1.6ft 3s 18 22 mph 1020.7mb 44f 41f
9:00am 1ft 3s 18 20 mph 1020.9mb 44f 41f
8:00am 1ft 3s 13 16 mph 1021.4mb 44f 41f
7:00am 0.7ft 2s 11 13 mph 1021.8mb 44f 41f
6:00am 1ft 3s 11 13 mph 1022.7mb 44f 41f
5:00am 1ft 2s 11 13 mph 1023.4mb 44f 41f
4:00am 0.7ft 2s 13 16 mph 1024.2mb 44f 40f
3:00am 0.7ft 3s 13 16 mph 1023.8mb 44f 40f
2:00am 1ft 3s 11 13 mph 1024.7mb 44f 41f
1:00am 1ft 3s 11 13 mph 1025.2mb 45f 41f
12:00am 1ft 3s 16 18 mph 1025.4mb 45f 41f
Sun 01/15 11:00pm 0.7ft 2s 16 18 mph 1025.8mb 44f 41f
10:00pm 0.7ft 2s 13
mph
1026mb 44f 41f
9:00pm 0.7ft 6s 11 13 mph 1026.3mb 44f 41f
8:00pm 0.3ft 4s 11 13 mph 1025.7mb 44f 40f
7:00pm 0.3ft 6s 7 9 mph 1026.2mb 45f 40f
6:00pm 0.3ft 6s 7
mph
1026mb 44f 40f
5:00pm 0.3ft 6s 4 7 mph 1025.9mb 44f 40f
4:00pm 0.3ft 3s 4
mph
1025.8mb 45f 40f
3:00pm 0.3ft 3s 2
mph
1026mb 45f 40f
2:00pm 0.3ft 6s  -  2 mph 1025.9mb 45f 40f
1:00pm 0.3ft 6s 2 4 mph 1026.1mb 45f 40f
12:00pm 0.3ft 6s 4
mph
1026.4mb 44f 39f
11:00am 0.3ft 2s 7
mph
1026.5mb 45f 39f
10:00am 0.3ft 5s 7 9 mph 1026.5mb 44f 39f
9:00am 0.3ft 2s 9
mph
1026.2mb 44f 39f
8:00am 0.3ft 4s 7 9 mph 1025.7mb 44f 39f
7:00am 0.3ft 2s 7 9 mph 1025.4mb 44f 39f
6:00am 0.3ft 3s 2 4 mph 1025.7mb 44f 40f
5:00am 0.3ft 3s 4
mph
1026.1mb 44f 39f
4:00am 0.7ft 2s 4
mph
1026.3mb 44f 39f
3:00am 0.7ft 2s 7 9 mph 1026.7mb 44f 40f
2:00am 0.3ft 2s 9
mph
1026.7mb 43f 40f
1:00am 0.3ft 2s 13 16 mph 1026.7mb 43f 39f
12:00am 0.3ft 2s 7 9 mph 1026.6mb 43f 39f
Sat 01/14 11:00pm 0.3ft 6s 2
mph
1026.3mb 43f 38f
10:00pm 0.3ft 2s 4 7 mph 1026.2mb 43f 39f
9:00pm 0.3ft 5s 9 11 mph 1026.1mb 43f 38f
8:00pm 0.3ft 6s 4 7 mph 1025.9mb 43f 39f
7:00pm 0.3ft 6s 4
mph
1026.2mb 43f 39f
6:00pm 0.3ft 2s 4 7 mph 1026.2mb 42f 39f
5:00pm 0.3ft 7s 4 7 mph 1026.8mb 42f 38f
4:00pm 0.3ft 3s 4
mph
1027.1mb 42f 38f
3:00pm 0.3ft 3s 2
mph
1027mb 42f 38f
2:00pm 0.3ft 6s 2
mph
1027.2mb 43f 38f
1:00pm 0.3ft 3s 2 4 mph 1028.2mb 42f 38f
12:00pm 0.3ft 6s 2 4 mph 1029.2mb 42f 37f
11:00am 0.3ft 2s 2 4 mph 1029.9mb 42f 38f
10:00am 0.3ft 7s  -  2 mph 1030.5mb 42f 38f
9:00am 0.3ft 3s 2 4 mph 1030.6mb 42f 37f
8:00am 0.3ft 6s 4 7 mph 1030.3mb 43f 37f
7:00am 0.3ft 2s 2 4 mph 1030.5mb 43f 36f
6:00am 0.3ft 2s 4 7 mph 1030.9mb 43f 35f
5:00am 0.3ft 2s 4 7 mph 1031.2mb 44f 36f
4:00am 0.3ft 2s 7 9 mph 1031.7mb 43f 36f
3:00am 0.3ft 3s 4
mph
1031.9mb 43f 35f
2:00am 0.3ft 4s 7 9 mph 1031.8mb 43f 36f
1:00am 0.3ft 5s 7 9 mph 1031.8mb 42f 36f
12:00am 0.3ft 6s 7 9 mph 1032.2mb 42f 36f
Fri 01/13 11:00pm 0.3ft 6s 4
mph
1032.1mb 42f 36f
10:00pm 0.3ft 3s 2 4 mph 1032mb 42f 36f
9:00pm 0.3ft 6s  -  mph 1031.9mb 41f 36f
8:00pm 0.3ft 2s  -  2 mph 1031.7mb 42f 36f
7:00pm 0.3ft 4s  -  mph 1031.8mb 41f 36f
6:00pm 0.3ft 6s  -  2 mph 1032.1mb 42f 36f
5:00pm 0.3ft 6s  -  2 mph 1032mb 42f 35f
4:00pm 0.3ft 2s 2 4 mph 1031.8mb 42f 35f
3:00pm 0.3ft 2s 4 7 mph 1031.9mb 42f 35f
2:00pm 0.3ft 4s 2 4 mph 1031.6mb 42f 35f
1:00pm 0.3ft 6s 2 7 mph 1031.6mb 42f 35f
12:00pm 0.3ft 4s 2 7 mph 1032mb 42f 36f
11:00am 0.3ft 3s 4 7 mph 1032.2mb 42f 35f
10:00am 0.3ft 6s 4
mph
1032.3mb 42f 34f
9:00am 0.3ft 2s 4
mph
1031.7mb 42f 34f
8:00am 0.7ft 6s 2 4 mph 1031mb 43f 34f
7:00am 0.3ft 2s 4 7 mph 1030.7mb 42f 34f
6:00am 0.3ft 2s 4 7 mph 1030.3mb 43f 35f
5:00am 0.3ft 2s 2
mph
1030.3mb 42f 34f
4:00am 0.3ft 6s 2 4 mph 1030.4mb 42f 34f